Time;durP1;ratioP1;P1;durP2;ratioP2;P2;SDS_P1;SDS_P2;PMS_P1;PMS_P2;Temp;Humidity;BMP_temperature;BMP_pressure;BME280_temperature;BME280_humidity;BME280_pressure;Samples;Min_cycle;Max_cycle;Signal;HPM_P1;HPM_P2
2023/03/10 00:01:23;;;;;;;4.00;3.67;;;7.30;99.90;;;7.92;91.32;96010.63;5237087;28;20236;-63
2023/03/10 00:03:58;;;;;;;4.33;3.47;;;7.40;99.90;;;8.04;91.27;96001.78;5239896;28;20219;-63
2023/03/10 00:06:36;;;;;;;4.27;3.67;;;7.40;99.90;;;8.19;90.21;96000.59;5246511;28;20200;-64
2023/03/10 00:09:11;;;;;;;3.87;3.33;;;7.60;99.90;;;8.23;88.46;95994.78;5246773;28;20329;-65
2023/03/10 00:11:45;;;;;;;5.73;3.47;;;7.70;99.90;;;8.33;88.91;95995.19;5241528;28;20224;-63
2023/03/10 00:14:18;;;;;;;4.40;3.93;;;7.70;99.90;;;8.32;88.72;95992.56;5242490;28;20220;-64
2023/03/10 00:16:52;;;;;;;5.43;4.03;;;7.70;99.90;;;8.34;88.27;95996.03;5237659;28;20215;-62
2023/03/10 00:19:25;;;;;;;3.90;3.50;;;7.70;99.90;;;8.40;87.68;95988.66;5228734;28;20252;-63
2023/03/10 00:21:59;;;;;;;4.03;3.47;;;7.80;99.90;;;8.49;88.15;95986.41;5238580;28;20963;-65
2023/03/10 00:24:32;;;;;;;3.97;3.57;;;7.90;99.90;;;8.52;87.41;95975.47;5234742;28;20487;-63
2023/03/10 00:27:05;;;;;;;5.97;3.40;;;7.90;99.90;;;8.51;88.80;95974.63;5240498;28;20196;-62
2023/03/10 00:29:38;;;;;;;4.37;3.30;;;7.90;99.90;;;8.49;88.78;95971.16;5241349;28;20247;-64
2023/03/10 00:32:13;;;;;;;3.77;3.07;;;7.90;99.90;;;8.49;88.54;95966.06;5236516;28;20659;-62
2023/03/10 00:34:46;;;;;;;3.50;3.20;;;7.90;99.90;;;8.50;87.03;95957.63;5233045;28;20704;-62
2023/03/10 00:37:19;;;;;;;5.53;3.73;;;7.90;99.90;;;8.57;86.82;95949.34;5240014;28;20619;-64
2023/03/10 00:39:52;;;;;;;3.60;3.20;;;7.90;99.90;;;8.61;86.17;95944.38;5234807;28;20208;-63
2023/03/10 00:42:26;;;;;;;4.23;3.50;;;8.00;99.90;;;8.72;85.82;95945.59;5241204;28;20204;-62
2023/03/10 00:44:59;;;;;;;3.70;3.40;;;8.00;99.90;;;8.71;85.95;95937.09;5233782;28;20201;-63
2023/03/10 00:47:33;;;;;;;3.90;3.53;;;8.00;99.90;;;8.70;85.47;95930.28;5240453;28;20327;-62
2023/03/10 00:50:08;;;;;;;3.40;3.10;;;8.00;99.90;;;8.70;85.62;95931.94;5240462;28;20204;-65
2023/03/10 00:52:41;;;;;;;3.57;3.07;;;8.00;99.90;;;8.72;86.29;95913.34;5237112;28;20192;-64
2023/03/10 00:55:14;;;;;;;3.20;2.90;;;8.10;99.90;;;8.73;84.96;95924.41;5243434;28;20248;-64
2023/03/10 00:57:47;;;;;;;5.10;3.47;;;8.10;99.90;;;8.77;85.58;95910.94;5236774;28;20309;-63
2023/03/10 01:00:23;;;;;;;3.30;3.10;;;8.10;99.90;;;8.77;85.91;95900.75;5235072;28;20743;-64
2023/03/10 01:02:58;;;;;;;3.93;2.87;;;8.10;99.90;;;8.78;87.18;95897.38;5234044;28;20683;-62
2023/03/10 01:05:32;;;;;;;3.63;3.27;;;8.10;99.90;;;8.75;87.72;95887.09;5236507;28;20199;-64
2023/03/10 01:08:05;;;;;;;4.83;3.27;;;8.00;99.90;;;8.66;87.73;95872.41;5231506;28;20225;-63
2023/03/10 01:10:38;;;;;;;3.80;3.17;;;7.90;99.90;;;8.68;87.26;95875.00;5238215;28;20200;-63
2023/03/10 01:13:13;;;;;;;3.73;3.30;;;8.00;99.90;;;8.72;85.83;95869.19;5242189;28;20220;-62
2023/03/10 01:15:47;;;;;;;3.43;2.97;;;8.10;99.90;;;8.71;86.67;95864.91;5235244;28;20698;-62
2023/03/10 01:18:22;;;;;;;4.90;2.97;;;8.10;99.90;;;8.71;85.62;95857.28;5232396;28;20219;-63
2023/03/10 01:20:55;;;;;;;3.30;2.70;;;8.10;99.90;;;8.77;85.61;95860.00;5236231;28;20294;-63
2023/03/10 01:23:28;;;;;;;2.80;2.60;;;8.10;99.90;;;8.82;85.90;95850.84;5235537;28;20200;-62
2023/03/10 01:26:01;;;;;;;3.00;2.80;;;8.10;99.90;;;8.81;85.89;95841.44;5242441;28;20225;-63
2023/03/10 01:28:35;;;;;;;4.50;3.40;;;8.10;99.90;;;8.84;86.71;95848.31;5240512;28;20233;-63
2023/03/10 01:31:09;;;;;;;6.00;3.63;;;8.10;99.90;;;8.79;88.79;95832.91;5233723;28;20204;-62
2023/03/10 01:33:44;;;;;;;4.57;3.27;;;8.00;99.90;;;8.66;90.17;95835.88;5231502;28;20556;-63
2023/03/10 01:36:21;;;;;;;4.03;3.43;;;7.90;99.90;;;8.64;90.99;95828.22;5242883;28;20196;-63
2023/03/10 01:38:56;;;;;;;6.35;3.35;;;7.80;99.90;;;8.58;91.79;95825.44;5232403;28;20516;-62
2023/03/10 01:41:29;;;;;;;6.10;4.00;;;7.70;99.90;;;8.57;92.16;95827.13;5237370;28;20201;-63
2023/03/10 01:44:03;;;;;;;4.07;3.63;;;7.70;99.90;;;8.50;92.55;95821.81;5236170;28;20193;-63
2023/03/10 01:46:49;;;;;;;4.30;3.63;;;7.70;99.90;;;8.44;92.99;95819.94;5236720;28;20204;-62
2023/03/10 01:49:38;;;;;;;4.97;3.43;;;7.60;99.90;;;8.31;92.99;95812.69;5242646;28;20730;-65
2023/03/10 01:52:16;;;;;;;3.60;3.00;;;7.50;99.90;;;8.33;93.39;95817.00;5238410;28;20211;-64
2023/03/10 01:54:54;;;;;;;4.10;2.80;;;7.60;99.90;;;8.32;92.77;95809.31;5235995;28;20681;-65
2023/03/10 01:57:32;;;;;;;4.53;3.47;;;7.60;99.90;;;8.45;92.52;95811.47;5236029;28;20326;-62
2023/03/10 02:00:11;;;;;;;4.67;3.97;;;7.60;99.90;;;8.43;93.54;95802.06;5240982;28;20196;-63
2023/03/10 02:02:53;;;;;;;3.67;3.37;;;7.50;99.90;;;8.32;93.94;95811.88;5232481;28;20211;-63
2023/03/10 02:05:29;;;;;;;5.00;3.67;;;7.40;99.90;;;8.35;93.51;95805.22;5236429;28;20609;-63
2023/03/10 02:08:03;;;;;;;5.23;3.90;;;7.40;99.90;;;8.23;94.22;95801.38;5235700;28;20216;-63
2023/03/10 02:10:37;;;;;;;4.40;3.80;;;7.40;99.90;;;8.17;94.30;95798.66;5239039;28;20212;-63
2023/03/10 02:13:10;;;;;;;4.90;3.30;;;7.40;99.90;;;8.17;94.79;95798.66;5234681;28;20587;-63
2023/03/10 02:15:43;;;;;;;4.27;3.57;;;7.40;99.90;;;8.13;95.65;95803.66;5240488;28;20220;-62
2023/03/10 02:18:18;;;;;;;4.10;3.70;;;7.30;99.90;;;8.05;95.70;95799.97;5239890;28;20315;-63
2023/03/10 02:21:00;;;;;;;3.23;3.00;;;7.30;99.90;;;8.06;95.38;95811.88;5237179;28;20657;-62
2023/03/10 02:23:39;;;;;;;2.83;2.63;;;7.30;99.90;;;8.13;95.31;95801.09;5235041;28;20586;-63
2023/03/10 02:26:35;;;;;;;4.70;3.13;;;7.40;99.90;;;8.35;94.64;95807.75;5235840;28;20656;-64
2023/03/10 02:29:15;;;;;;;4.07;3.40;;;7.50;99.90;;;8.63;91.27;95803.56;5240286;28;20224;-63
2023/03/10 02:31:49;;;;;;;4.10;3.23;;;7.70;99.90;;;8.59;91.75;95798.34;5240826;28;20587;-62
2023/03/10 02:34:23;;;;;;;3.23;2.90;;;7.80;99.90;;;8.65;90.04;95789.19;5232464;28;20298;-63
2023/03/10 02:36:57;;;;;;;3.30;2.90;;;7.90;99.90;;;8.82;88.37;95792.25;5234639;28;20283;-63
2023/03/10 02:39:30;;;;;;;3.30;3.00;;;8.10;99.90;;;9.11;86.40;95787.16;5241014;28;20244;-62
2023/03/10 02:42:04;;;;;;;4.60;3.10;;;8.30;99.90;;;9.48;85.99;95800.09;5244369;28;20286;-63
2023/03/10 02:44:39;;;;;;;3.53;3.00;;;8.80;99.90;;;9.66;85.54;95783.56;5246201;28;20196;-63
2023/03/10 02:47:13;;;;;;;2.97;2.70;;;9.00;99.90;;;9.88;84.28;95775.66;5236645;28;20201;-63
2023/03/10 02:49:46;;;;;;;3.53;2.50;;;9.40;99.90;;;10.01;84.18;95775.97;5238469;28;20621;-63
2023/03/10 02:52:28;;;;;;;3.37;2.20;;;9.60;99.90;;;10.09;84.32;95779.59;5243343;28;20292;-63
2023/03/10 02:55:01;;;;;;;2.73;2.30;;;9.80;99.90;;;10.29;83.95;95778.41;5243537;28;20212;-63
2023/03/10 02:57:34;;;;;;;3.43;2.50;;;9.90;99.90;;;10.32;84.72;95773.38;5248180;28;20226;-63
2023/03/10 03:00:11;;;;;;;3.27;2.50;;;9.90;99.90;;;10.46;83.66;95773.72;5236757;28;20205;-63
2023/03/10 03:02:44;;;;;;;2.70;2.50;;;10.00;99.90;;;10.52;82.94;95773.00;5236000;28;20207;-64
2023/03/10 03:05:17;;;;;;;3.70;2.60;;;10.10;99.90;;;10.57;82.05;95777.38;5245803;28;20720;-65
2023/03/10 03:07:51;;;;;;;3.22;2.20;;;10.10;99.90;;;10.65;82.13;95775.00;5240823;28;20335;-64
2023/03/10 03:10:24;;;;;;;4.07;2.08;;;10.20;99.90;;;10.78;81.56;95776.13;5254443;28;20207;-64
2023/03/10 03:12:57;;;;;;;2.30;2.10;;;10.30;99.90;;;10.76;81.63;95778.69;5234325;28;20211;-64
2023/03/10 03:15:32;;;;;;;2.03;1.92;;;10.20;99.90;;;10.77;81.36;95779.53;5245040;28;20216;-64
2023/03/10 03:18:05;;;;;;;2.38;2.17;;;10.30;99.90;;;10.74;82.01;95762.44;5238857;28;20640;-62
2023/03/10 03:20:40;;;;;;;1.95;1.85;;;10.20;99.90;;;10.86;81.10;95773.75;5241275;28;20201;-65
2023/03/10 03:23:13;;;;;;;2.97;2.00;;;10.40;99.90;;;10.89;80.56;95758.50;5249034;28;20196;-64
2023/03/10 03:25:46;;;;;;;2.45;1.90;;;10.30;99.90;;;10.97;80.50;95756.97;5245561;28;20686;-63
2023/03/10 03:28:20;;;;;;;2.13;1.90;;;10.50;99.90;;;10.94;80.70;95754.34;5242375;28;20255;-64
2023/03/10 03:30:54;;;;;;;2.35;1.92;;;10.50;99.90;;;10.86;81.19;95755.88;5236991;28;20207;-65
2023/03/10 03:33:27;;;;;;;1.80;1.70;;;10.40;99.90;;;10.83;81.70;95754.09;5234770;28;20320;-64
2023/03/10 03:36:01;;;;;;;2.08;1.88;;;10.30;99.90;;;10.91;81.66;95762.81;5235000;28;20599;-63
2023/03/10 03:38:34;;;;;;;1.95;1.85;;;10.30;99.90;;;10.95;81.86;95758.63;5249695;28;20232;-63
2023/03/10 03:41:08;;;;;;;1.83;1.70;;;10.40;99.90;;;10.97;81.63;95762.09;5246475;28;20211;-63
2023/03/10 03:43:41;;;;;;;1.90;1.80;;;10.50;99.90;;;10.97;81.13;95762.09;5236554;28;21290;-64
2023/03/10 03:46:16;;;;;;;1.90;1.80;;;10.50;99.90;;;11.03;82.09;95767.31;5233275;28;20297;-64
2023/03/10 03:48:49;;;;;;;1.33;1.30;;;10.50;99.90;;;10.95;81.60;95764.59;5234220;28;20692;-63
2023/03/10 03:51:22;;;;;;;1.80;1.70;;;10.50;99.90;;;10.98;81.26;95763.78;5239322;28;20303;-65
2023/03/10 03:53:55;;;;;;;1.88;1.77;;;10.60;99.90;;;10.96;81.99;95757.78;5244895;28;20288;-64
2023/03/10 03:56:28;;;;;;;1.67;1.58;;;10.40;99.90;;;10.97;82.68;95760.38;5246269;28;20220;-64
2023/03/10 03:59:01;;;;;;;1.63;1.52;;;10.40;99.90;;;10.90;82.58;95757.66;5235164;28;20220;-63
2023/03/10 04:01:36;;;;;;;1.70;1.60;;;10.30;99.90;;;10.98;81.79;95756.13;5232111;28;20343;-63
2023/03/10 04:04:09;;;;;;;1.30;1.20;;;10.30;99.90;;;10.88;82.48;95749.97;5235809;28;20208;-64
2023/03/10 04:06:42;;;;;;;1.80;1.70;;;10.30;99.90;;;11.00;81.63;95750.22;5245945;28;20287;-63
2023/03/10 04:09:16;;;;;;;1.42;1.40;;;10.30;99.90;;;10.91;82.37;95750.03;5238480;28;20324;-64
2023/03/10 04:11:50;;;;;;;1.42;1.33;;;10.20;99.90;;;10.96;81.90;95750.09;5243071;28;20211;-64
2023/03/10 04:14:23;;;;;;;1.45;1.35;;;10.30;99.90;;;11.00;81.71;95737.44;5241775;28;20201;-62
2023/03/10 04:16:57;;;;;;;2.80;1.80;;;10.30;99.90;;;10.92;82.71;95748.34;5245819;28;20243;-63
2023/03/10 04:19:31;;;;;;;1.77;1.50;;;10.30;99.90;;;10.84;83.43;95745.59;5240922;28;20292;-64
2023/03/10 04:22:04;;;;;;;1.50;1.40;;;10.20;99.90;;;10.90;82.80;95755.09;5231632;28;20292;-63
2023/03/10 04:24:38;;;;;;;1.80;1.70;;;10.20;99.90;;;11.02;84.65;95750.28;5241057;28;20216;-64
2023/03/10 04:27:11;;;;;;;1.70;1.60;;;10.30;99.90;;;11.00;86.18;95727.22;5241799;28;20200;-63
2023/03/10 04:29:44;;;;;;;1.33;1.27;;;10.40;99.90;;;10.90;86.81;95734.66;5238555;28;20615;-63
2023/03/10 04:32:18;;;;;;;1.88;1.73;;;10.20;99.90;;;10.88;87.52;95741.44;5243419;28;20204;-64
2023/03/10 04:34:52;;;;;;;1.48;1.48;;;10.20;99.90;;;10.80;87.72;95729.34;5228064;28;20665;-65
2023/03/10 04:37:29;;;;;;;1.40;1.40;;;10.10;99.90;;;10.86;87.54;95737.97;5231091;28;20696;-63
2023/03/10 04:40:07;;;;;;;1.58;1.48;;;10.00;99.90;;;10.78;87.79;95736.13;5233422;28;21596;-63
2023/03/10 04:42:40;;;;;;;1.25;1.23;;;10.00;99.90;;;10.72;88.02;95720.66;5234582;28;20291;-64
2023/03/10 04:45:13;;;;;;;1.48;1.40;;;9.90;99.90;;;10.83;88.68;95733.66;5231591;28;20627;-63
2023/03/10 04:47:48;;;;;;;4.97;1.63;;;9.90;99.90;;;10.58;89.18;95728.00;5235311;28;20220;-63
2023/03/10 04:50:21;;;;;;;5.22;4.13;;;9.90;99.90;;;10.52;89.24;95724.47;5238633;28;20291;-63
2023/03/10 04:52:54;;;;;;;1.95;1.83;;;9.80;99.90;;;10.47;90.22;95719.28;5224097;28;20342;-63
2023/03/10 04:55:27;;;;;;;1.70;1.60;;;9.70;99.90;;;10.37;90.38;95712.22;5232242;28;20227;-65
2023/03/10 04:58:01;;;;;;;1.45;1.35;;;9.60;99.90;;;10.53;88.72;95718.50;5224538;28;20227;-66
2023/03/10 05:00:34;;;;;;;1.50;1.50;;;9.70;99.90;;;10.41;89.60;95729.31;5229708;28;20201;-63
2023/03/10 05:03:08;;;;;;;1.38;1.38;;;9.60;99.90;;;10.35;90.18;95726.63;5224018;28;20325;-63
2023/03/10 05:05:42;;;;;;;1.50;1.40;;;9.50;99.90;;;10.26;91.58;95719.59;5227141;28;20200;-63
2023/03/10 05:08:15;;;;;;;1.58;1.58;;;9.50;99.90;;;10.22;91.24;95716.94;5226324;28;20696;-63
2023/03/10 05:10:49;;;;;;;1.30;1.30;;;9.40;99.90;;;10.23;91.18;95713.56;5226991;28;20847;-65
2023/03/10 05:13:22;;;;;;;1.80;1.48;;;9.40;99.90;;;10.32;91.06;95712.09;5224957;28;20228;-63
2023/03/10 05:15:55;;;;;;;1.58;1.48;;;9.50;99.90;;;10.31;90.52;95706.97;5224645;28;20228;-64
2023/03/10 05:18:29;;;;;;;1.75;1.65;;;9.50;99.90;;;10.30;89.92;95711.22;5225415;28;20685;-64
2023/03/10 05:21:02;;;;;;;1.73;1.63;;;9.50;99.90;;;10.21;90.93;95710.94;5225440;28;20680;-64
2023/03/10 05:23:35;;;;;;;2.28;2.08;;;9.40;99.90;;;10.33;90.48;95716.41;5224234;28;20672;-64
2023/03/10 05:26:11;;;;;;;8.20;7.68;;;9.50;99.90;;;10.30;90.37;95705.22;5229644;28;20648;-64
2023/03/10 05:28:44;;;;;;;4.80;4.50;;;9.50;99.90;;;10.45;89.28;95677.50;5222876;28;20232;-64
2023/03/10 05:31:25;;;;;;;4.97;4.60;;;9.50;99.90;;;10.49;88.46;95678.44;5229402;28;20209;-63
2023/03/10 05:33:59;;;;;;;3.53;3.33;;;9.60;99.90;;;10.32;90.52;95678.91;5236400;28;20295;-64
2023/03/10 05:36:33;;;;;;;2.63;2.38;;;9.50;99.90;;;10.34;89.42;95686.63;5234363;28;20227;-63
2023/03/10 05:39:08;;;;;;;1.60;1.50;;;9.50;99.90;;;10.31;89.66;95682.28;5238457;28;20371;-63
2023/03/10 05:41:41;;;;;;;1.65;1.55;;;9.50;99.90;;;10.38;88.38;95673.94;5234895;28;20196;-63
2023/03/10 05:44:14;;;;;;;1.65;1.55;;;9.50;99.90;;;10.41;88.70;95672.28;5235794;28;20295;-63
2023/03/10 05:46:47;;;;;;;1.77;1.67;;;9.50;99.90;;;10.44;87.86;95672.34;5234583;28;20204;-64
2023/03/10 05:49:22;;;;;;;1.80;1.70;;;9.50;99.90;;;10.44;88.62;95667.25;5231125;28;20228;-64
2023/03/10 05:51:55;;;;;;;1.65;1.55;;;9.60;99.90;;;10.41;88.38;95668.03;5235083;28;20203;-64
2023/03/10 05:54:28;;;;;;;1.50;1.40;;;9.60;99.90;;;10.41;88.06;95673.13;5237500;28;20208;-64
2023/03/10 05:57:01;;;;;;;1.90;1.80;;;9.50;99.90;;;10.37;88.93;95667.09;5232524;28;20221;-64
2023/03/10 05:59:34;;;;;;;2.05;1.90;;;9.50;99.90;;;10.44;87.67;95657.03;5234832;28;20297;-63
2023/03/10 06:02:07;;;;;;;1.70;1.60;;;9.60;99.90;;;10.57;87.14;95664.13;5232206;28;20204;-63
2023/03/10 06:04:41;;;;;;;1.77;1.67;;;9.80;99.90;;;10.54;87.25;95653.84;5231292;28;20650;-64
2023/03/10 06:07:14;;;;;;;2.70;2.50;;;9.80;99.90;;;10.63;85.36;95648.94;5239714;28;20204;-64
2023/03/10 06:09:48;;;;;;;1.65;1.55;;;9.90;99.90;;;10.59;86.03;95653.13;5234272;28;20204;-64
2023/03/10 06:12:21;;;;;;;1.92;1.77;;;9.90;99.90;;;10.56;86.18;95658.16;5234884;28;20295;-64
2023/03/10 06:14:54;;;;;;;1.70;1.63;;;9.80;99.90;;;10.62;85.48;95651.47;5240084;28;20273;-63
2023/03/10 06:17:27;;;;;;;1.67;1.60;;;9.90;99.90;;;10.75;85.11;95656.84;5238994;28;20224;-63
2023/03/10 06:20:01;;;;;;;1.80;1.70;;;10.10;99.90;;;10.67;86.64;95637.94;5240640;28;20199;-63
2023/03/10 06:22:34;;;;;;;2.15;2.03;;;9.90;99.90;;;10.72;87.14;95648.25;5243859;28;20196;-64
2023/03/10 06:25:09;;;;;;;2.95;1.85;;;10.00;99.90;;;10.66;88.37;95637.91;5233247;28;20209;-63
2023/03/10 06:27:42;;;;;;;2.10;2.00;;;9.90;99.90;;;10.45;89.75;95648.56;5237622;28;20254;-64
2023/03/10 06:30:16;;;;;;;1.92;1.80;;;9.80;99.90;;;10.45;91.75;95656.22;5240220;28;20297;-64
2023/03/10 06:32:49;;;;;;;2.22;2.13;;;9.70;99.90;;;10.35;92.34;95657.69;5239903;28;20661;-63
2023/03/10 06:35:24;;;;;;;2.05;1.95;;;9.70;99.90;;;10.34;92.24;95651.72;5242047;28;20201;-62
2023/03/10 06:37:57;;;;;;;2.13;2.03;;;9.60;99.90;;;10.21;93.72;95641.16;5242767;28;20224;-65
2023/03/10 06:40:30;;;;;;;1.77;1.67;;;9.60;99.90;;;10.16;94.83;95635.97;5238984;28;20266;-64
2023/03/10 06:43:03;;;;;;;2.80;1.98;;;9.50;99.90;;;10.26;94.97;95645.53;5239107;28;20239;-64
2023/03/10 06:45:36;;;;;;;2.90;1.90;;;9.50;99.90;;;10.23;94.24;95640.38;5235433;28;20208;-63
2023/03/10 06:48:10;;;;;;;2.10;1.70;;;9.50;99.90;;;10.19;95.21;95625.84;5239311;28;20226;-63
2023/03/10 06:50:47;;;;;;;2.38;2.28;;;9.50;99.90;;;10.13;96.30;95630.81;5244188;28;20955;-63
2023/03/10 06:53:21;;;;;;;2.35;1.90;;;9.40;99.90;;;10.06;97.89;95628.94;5239002;28;20755;-64
2023/03/10 06:56:00;;;;;;;2.15;2.05;;;9.40;99.90;;;10.05;97.88;95632.31;5240904;28;20209;-63
2023/03/10 06:58:35;;;;;;;2.67;2.22;;;9.40;99.90;;;10.07;99.09;95628.09;5237329;28;20216;-66
2023/03/10 07:01:08;;;;;;;2.50;2.20;;;9.40;99.90;;;10.00;100.00;95623.69;5234501;28;20275;-64
2023/03/10 07:03:42;;;;;;;2.72;2.47;;;9.30;99.90;;;10.09;100.00;95619.63;5241609;28;20307;-63
2023/03/10 07:06:17;;;;;;;2.88;2.67;;;9.30;99.90;;;10.08;100.00;95617.06;5248222;28;20923;-63
2023/03/10 07:08:50;;;;;;;3.17;2.97;;;9.40;99.90;;;10.13;100.00;95610.38;5236769;28;20224;-64
2023/03/10 07:11:25;;;;;;;3.20;2.90;;;9.40;99.90;;;10.23;100.00;95602.09;5232052;28;20696;-62
2023/03/10 07:13:58;;;;;;;2.60;2.35;;;9.50;99.90;;;10.48;100.00;95597.53;5231669;28;20202;-62
2023/03/10 07:16:31;;;;;;;4.68;2.67;;;9.70;99.90;;;10.88;100.00;95611.09;5237636;28;20207;-62
2023/03/10 07:19:04;;;;;;;2.28;1.90;;;10.00;99.90;;;11.24;100.00;95616.88;5242040;28;20707;-64
2023/03/10 07:21:39;;;;;;;1.98;1.80;;;10.40;99.90;;;11.58;100.00;95614.91;5240886;28;20254;-63
2023/03/10 07:24:12;;;;;;;2.75;1.88;;;10.80;99.90;;;11.69;98.22;95608.28;5241815;28;20738;-64
2023/03/10 07:26:45;;;;;;;2.05;1.90;;;10.90;99.90;;;11.81;94.42;95606.75;5234909;28;20201;-63
2023/03/10 07:29:18;;;;;;;2.05;1.90;;;11.00;99.90;;;11.88;94.84;95598.38;5239290;28;20221;-64
2023/03/10 07:31:51;;;;;;;2.17;2.08;;;11.10;99.90;;;12.18;94.92;95603.91;5240356;28;20727;-62
2023/03/10 07:34:25;;;;;;;2.00;1.90;;;11.30;99.90;;;12.43;92.49;95599.16;5234607;28;20205;-63
2023/03/10 07:36:59;;;;;;;2.35;2.00;;;11.40;99.90;;;12.42;91.84;95600.00;5241316;28;20207;-63
2023/03/10 07:39:32;;;;;;;2.05;1.52;;;11.50;99.90;;;12.42;91.39;95589.75;5236383;28;20340;-63
2023/03/10 07:42:06;;;;;;;1.85;1.75;;;11.40;99.90;;;12.29;91.94;95590.41;5241813;28;20296;-64
2023/03/10 07:44:39;;;;;;;1.60;1.50;;;11.40;99.90;;;12.17;91.99;95599.66;5231072;28;20196;-63
2023/03/10 07:47:13;;;;;;;1.90;1.60;;;11.20;99.90;;;12.16;91.41;95608.19;5232991;28;20208;-64
2023/03/10 07:49:46;;;;;;;2.88;1.83;;;11.10;99.90;;;12.05;91.93;95617.41;5244819;28;20200;-65
2023/03/10 07:52:20;;;;;;;2.40;1.75;;;11.10;99.90;;;11.96;92.21;95617.28;5243117;28;20638;-64
2023/03/10 07:54:53;;;;;;;2.25;1.50;;;11.00;99.90;;;11.88;92.28;95618.84;5240848;28;20227;-63
2023/03/10 07:57:28;;;;;;;2.60;2.40;;;10.90;99.90;;;11.85;92.52;95609.44;5243565;28;20231;-64
2023/03/10 08:00:01;;;;;;;3.00;2.00;;;10.80;99.90;;;11.80;93.45;95613.56;5236846;28;20202;-65
2023/03/10 08:02:34;;;;;;;1.77;1.60;;;10.80;99.90;;;11.89;92.56;95605.19;5232942;28;20211;-64
2023/03/10 08:05:10;;;;;;;1.98;1.77;;;10.90;99.90;;;11.86;92.44;95608.56;5242895;28;20197;-64
2023/03/10 08:07:45;;;;;;;3.45;1.58;;;10.90;99.90;;;11.88;93.06;95613.72;5244278;28;20310;-64
2023/03/10 08:10:18;;;;;;;1.75;1.65;;;10.80;99.90;;;11.89;92.45;95615.44;5238623;28;20200;-64
2023/03/10 08:12:53;;;;;;;1.95;1.80;;;10.90;99.90;;;11.83;92.33;95607.66;5238079;28;20204;-64
2023/03/10 08:15:27;;;;;;;1.45;1.45;;;10.90;99.90;;;11.80;93.07;95613.56;5239851;28;20203;-64
2023/03/10 08:18:03;;;;;;;1.58;1.48;;;10.80;99.90;;;11.79;92.61;95613.53;5239743;28;20751;-66
2023/03/10 08:20:39;;;;;;;1.60;1.50;;;10.80;99.90;;;11.76;93.40;95605.81;5236289;28;20192;-64
2023/03/10 08:23:14;;;;;;;2.97;1.60;;;10.70;99.90;;;11.80;91.99;95610.16;5240151;28;20612;-64
2023/03/10 08:25:47;;;;;;;1.50;1.40;;;10.70;99.90;;;11.84;92.17;95612.75;5241131;28;20284;-64
2023/03/10 08:28:21;;;;;;;1.60;1.58;;;10.90;99.90;;;11.90;92.01;95606.91;5244655;28;20299;-64
2023/03/10 08:30:55;;;;;;;2.58;1.90;;;10.90;99.90;;;12.06;90.01;95603.75;5238625;28;20197;-64
2023/03/10 08:33:37;;;;;;;2.08;1.75;;;11.10;99.90;;;12.08;90.09;95603.78;5234517;28;20258;-65
2023/03/10 08:36:14;;;;;;;2.45;1.92;;;11.10;99.90;;;12.03;91.33;95606.28;5239645;28;20212;-65
2023/03/10 08:38:50;;;;;;;2.10;2.00;;;11.10;99.90;;;12.00;91.39;95601.09;5230842;28;20231;-65
2023/03/10 08:41:26;;;;;;;1.60;1.50;;;11.10;99.90;;;12.00;91.96;95608.78;5239016;28;20243;-64
2023/03/10 08:44:00;;;;;;;2.33;2.03;;;11.00;99.90;;;11.99;91.43;95612.19;5243319;28;20663;-65
2023/03/10 08:46:34;;;;;;;1.98;1.88;;;11.00;99.90;;;11.98;91.74;95636.06;5239509;28;20295;-65
2023/03/10 08:49:08;;;;;;;2.17;1.80;;;11.00;99.90;;;11.84;92.24;95642.63;5237858;28;20583;-64
2023/03/10 08:51:42;;;;;;;2.38;2.25;;;10.90;99.90;;;11.66;93.54;95638.06;5233833;28;20675;-65
2023/03/10 08:54:19;;;;;;;2.40;2.13;;;10.80;99.90;;;11.46;95.02;95647.97;5240738;28;20235;-64
2023/03/10 08:56:53;;;;;;;1.30;1.20;;;10.70;99.90;;;10.87;92.99;95638.34;5235984;28;20200;-65
2023/03/10 08:59:26;;;;;;;1.80;1.70;;;10.20;99.90;;;10.52;94.40;95650.41;5234930;28;20641;-65
2023/03/10 09:01:59;;;;;;;1.67;1.48;;;9.90;99.90;;;10.29;96.54;95642.25;5237139;28;20220;-64
2023/03/10 09:04:32;;;;;;;1.27;1.27;;;9.50;99.90;;;10.00;97.63;95659.41;5242887;28;20777;-63
2023/03/10 09:07:05;;;;;;;1.70;1.60;;;9.40;99.90;;;9.89;98.79;95661.72;5240849;28;20196;-64
2023/03/10 09:09:40;;;;;;;1.92;1.83;;;9.20;99.90;;;9.81;100.00;95692.13;5235740;28;20305;-65
2023/03/10 09:12:13;;;;;;;1.65;1.60;;;9.10;99.90;;;9.83;100.00;95687.94;5235135;28;20196;-64
2023/03/10 09:14:47;;;;;;;1.80;1.70;;;9.00;99.90;;;9.56;100.00;95687.25;5238682;28;20287;-63
2023/03/10 09:17:20;;;;;;;2.22;2.05;;;8.90;99.90;;;9.56;100.00;95698.31;5239228;28;20211;-63
2023/03/10 09:19:53;;;;;;;2.10;2.00;;;8.90;99.90;;;9.23;100.00;95703.38;5238448;28;20715;-64
2023/03/10 09:22:26;;;;;;;2.10;2.00;;;8.70;99.90;;;9.13;100.00;95709.03;5235799;28;20291;-63
2023/03/10 09:25:00;;;;;;;2.40;1.80;;;8.60;99.90;;;9.11;100.00;95729.41;5245875;28;20299;-64
2023/03/10 09:27:33;;;;;;;2.13;1.67;;;8.50;99.90;;;9.15;100.00;95704.84;5237360;28;20214;-64
2023/03/10 09:30:08;;;;;;;1.77;1.67;;;8.50;99.90;;;9.21;100.00;95705.91;5239642;28;20300;-65
2023/03/10 09:32:43;;;;;;;2.13;2.00;;;8.50;99.90;;;9.48;100.00;95710.88;5241384;28;20291;-65
2023/03/10 09:35:17;;;;;;;2.10;1.90;;;8.70;99.90;;;9.56;100.00;95718.72;5236228;28;20261;-63
2023/03/10 09:37:50;;;;;;;2.40;1.60;;;8.80;99.90;;;9.58;100.00;95713.66;5236790;28;20236;-65
2023/03/10 09:40:25;;;;;;;2.53;2.33;;;9.00;99.90;;;9.62;100.00;95702.72;5239550;28;20201;-64
2023/03/10 09:43:01;;;;;;;2.23;2.10;;;9.00;99.90;;;9.70;100.00;95702.09;5240697;28;20729;-63
2023/03/10 09:45:43;;;;;;;2.30;2.10;;;9.10;99.90;;;9.94;100.00;95690.75;5240204;28;20200;-64
2023/03/10 09:48:36;;;;;;;2.38;2.28;;;9.30;99.90;;;10.22;100.00;95694.81;5237081;28;20216;-64
2023/03/10 09:51:16;;;;;;;2.05;1.90;;;9.60;99.90;;;10.55;100.00;95693.88;5238758;28;20305;-64
2023/03/10 09:53:58;;;;;;;3.33;2.20;;;9.90;99.90;;;10.73;100.00;95685.75;5240063;28;20242;-65
2023/03/10 09:56:36;;;;;;;2.35;2.15;;;10.00;99.90;;;10.93;100.00;95684.50;5232234;28;20677;-65
2023/03/10 09:59:15;;;;;;;1.98;1.80;;;10.20;99.90;;;11.09;100.00;95674.56;5244284;28;20261;-64
2023/03/10 10:01:51;;;;;;;2.20;2.10;;;10.40;99.90;;;11.27;100.00;95677.44;5240969;28;20196;-64
2023/03/10 10:04:33;;;;;;;2.42;1.90;;;10.60;99.90;;;11.60;100.00;95663.56;5237272;28;21241;-64
2023/03/10 10:07:16;;;;;;;3.80;1.90;;;10.80;99.90;;;11.77;100.00;95674.09;5237530;28;20191;-63
2023/03/10 10:09:55;;;;;;;2.10;2.00;;;11.10;99.90;;;11.85;100.00;95663.19;5237447;28;20224;-63
2023/03/10 10:12:29;;;;;;;2.08;1.98;;;11.10;99.90;;;11.99;99.24;95657.41;5236502;28;20298;-65
2023/03/10 10:15:16;;;;;;;1.92;1.67;;;11.30;99.90;;;11.96;92.39;95673.59;5232203;28;20200;-63
2023/03/10 10:18:13;;;;;;;2.95;2.28;;;11.40;99.90;;;11.90;93.62;95663.22;5234714;28;20597;-64
2023/03/10 10:21:00;;;;;;;2.20;2.10;;;11.30;99.90;;;11.83;90.34;95667.38;5233033;28;20254;-64
2023/03/10 10:23:42;;;;;;;2.47;2.28;;;11.40;99.90;;;11.67;91.34;95670.50;5239077;28;20754;-63
2023/03/10 10:26:19;;;;;;;2.05;1.90;;;11.30;99.90;;;11.66;89.24;95668.78;5239675;28;20570;-64
2023/03/10 10:28:56;;;;;;;2.17;1.95;;;11.30;99.90;;;11.62;88.55;95673.00;5235036;28;20307;-63
2023/03/10 10:31:31;;;;;;;2.90;2.72;;;11.30;99.90;;;11.73;90.26;95675.72;5234000;28;20299;-63
2023/03/10 10:34:19;;;;;;;2.40;2.20;;;11.30;99.90;;;11.71;90.55;95680.81;5241953;28;20200;-63
2023/03/10 10:36:55;;;;;;;1.40;1.40;;;11.30;99.90;;;11.76;91.08;95682.59;5232414;28;20292;-64
2023/03/10 10:39:33;;;;;;;2.45;1.50;;;11.30;99.90;;;11.70;89.43;95683.34;5232705;28;20232;-63
2023/03/10 10:42:19;;;;;;;2.67;1.70;;;11.20;99.90;;;11.47;91.29;95668.47;5240037;28;20307;-64
2023/03/10 10:44:56;;;;;;;1.98;1.80;;;11.10;99.90;;;11.41;92.58;95677.72;5237267;28;20323;-64
2023/03/10 10:47:31;;;;;;;3.10;2.00;;;11.20;99.90;;;11.51;94.31;95666.81;5236093;28;20243;-63
2023/03/10 10:50:19;;;;;;;2.30;2.13;;;11.10;99.90;;;11.51;93.72;95669.38;5241207;28;20228;-63
2023/03/10 10:53:19;;;;;;;1.90;1.80;;;11.10;99.90;;;11.45;95.06;95664.16;5242044;28;20193;-64
2023/03/10 10:56:03;;;;;;;2.25;2.00;;;11.00;99.90;;;11.38;96.09;95659.75;5238465;28;20627;-63
2023/03/10 10:58:39;;;;;;;2.75;1.88;;;10.90;99.90;;;11.52;96.67;95655.75;5234659;28;20716;-64